createdAt,value
2023-04-04T00:03:45.585Z,15.43
2023-04-04T00:06:31.236Z,15.70
2023-04-04T00:09:03.203Z,15.60
2023-04-04T00:11:35.416Z,15.80
2023-04-04T00:20:03.657Z,16.10
2023-04-04T00:25:53.928Z,16.10
2023-04-04T00:49:31.171Z,15.80
2023-04-04T00:52:01.541Z,15.70
2023-04-04T00:54:32.679Z,16.00
2023-04-04T00:57:03.366Z,16.07
2023-04-04T00:59:33.638Z,15.77
2023-04-04T01:06:08.627Z,15.97
2023-04-04T01:08:55.155Z,16.20
2023-04-04T01:11:28.326Z,16.00
2023-04-04T01:29:24.643Z,15.57
2023-04-04T01:32:07.556Z,15.67
2023-04-04T01:34:47.776Z,16.77
2023-04-04T01:40:27.492Z,15.70
2023-04-04T01:43:12.585Z,15.80
2023-04-04T01:46:16.020Z,15.90
2023-04-04T02:02:33.420Z,16.13
2023-04-04T02:05:02.785Z,15.80
2023-04-04T02:07:31.385Z,15.53
2023-04-04T02:10:00.083Z,15.80
2023-04-04T02:12:28.648Z,15.67
2023-04-04T02:14:57.211Z,15.60
2023-04-04T02:17:25.822Z,15.10
2023-04-04T02:19:56.355Z,15.40
2023-04-04T02:22:24.505Z,15.43
2023-04-04T02:24:53.851Z,15.43
2023-04-04T02:27:22.476Z,15.70
2023-04-04T02:29:51.349Z,15.40
2023-04-04T02:32:19.803Z,15.43
2023-04-04T02:34:48.385Z,15.90
2023-04-04T02:37:19.034Z,15.30
2023-04-04T02:39:48.328Z,15.70
2023-04-04T02:42:18.270Z,14.53
2023-04-04T02:44:47.057Z,15.03
2023-04-04T02:47:20.786Z,14.90
2023-04-04T02:49:49.127Z,14.33
2023-04-04T02:52:21.681Z,15.17
2023-04-04T02:54:50.912Z,15.87
2023-04-04T02:57:30.264Z,15.00
2023-04-04T02:59:58.621Z,16.73
2023-04-04T03:02:26.934Z,16.10
2023-04-04T03:04:57.910Z,16.20
2023-04-04T03:07:27.820Z,15.93
2023-04-04T03:09:56.395Z,16.10
2023-04-04T03:12:24.918Z,15.87
2023-04-04T03:14:53.978Z,14.73
2023-04-04T03:17:22.681Z,14.90
2023-04-04T03:19:53.861Z,15.30
2023-04-04T03:22:23.051Z,15.00
2023-04-04T03:24:53.884Z,15.10
2023-04-04T03:27:22.446Z,14.67
2023-04-04T03:29:50.986Z,15.00
2023-04-04T03:32:39.469Z,15.30
2023-04-04T03:35:08.701Z,14.43
2023-04-04T03:37:38.798Z,15.63
2023-04-04T03:40:11.436Z,15.43
2023-04-04T03:42:41.187Z,14.60
2023-04-04T03:45:12.833Z,14.30
2023-04-04T03:47:43.956Z,14.30
2023-04-04T03:50:12.940Z,14.87
2023-04-04T03:52:52.269Z,14.77
2023-04-04T03:55:23.240Z,14.53
2023-04-04T03:57:53.188Z,13.90
2023-04-04T04:00:23.683Z,13.87
2023-04-04T04:02:54.905Z,14.53
2023-04-04T04:05:23.603Z,13.30
2023-04-04T04:07:56.912Z,14.83
2023-04-04T04:10:26.844Z,14.77
2023-04-04T04:12:58.412Z,13.40
2023-04-04T04:15:27.670Z,14.80
2023-04-04T04:17:58.845Z,14.50
2023-04-04T04:20:29.997Z,14.70
2023-04-04T04:23:12.920Z,14.80
2023-04-04T04:25:49.617Z,13.63
2023-04-04T04:28:21.334Z,15.10
2023-04-04T04:30:53.604Z,14.80
2023-04-04T04:33:32.342Z,14.23
2023-04-04T04:36:07.257Z,14.40
2023-04-04T04:38:58.600Z,14.60
2023-04-04T04:41:39.585Z,14.43
2023-04-04T04:44:09.120Z,14.77
2023-04-04T04:46:37.787Z,14.30
2023-04-04T04:49:13.060Z,15.03
2023-04-04T04:51:42.584Z,14.40
2023-04-04T04:54:11.866Z,14.03
2023-04-04T04:56:43.143Z,14.30
2023-04-04T04:59:21.940Z,13.53
2023-04-04T05:01:50.983Z,13.40
2023-04-04T05:04:20.785Z,14.90
2023-04-04T05:07:01.594Z,14.23
2023-04-04T05:09:30.332Z,14.90
2023-04-04T05:12:02.109Z,14.80
2023-04-04T05:14:43.116Z,15.10
2023-04-04T05:17:11.622Z,14.07
2023-04-04T05:29:00.063Z,14.47
2023-04-04T05:31:39.506Z,15.00
2023-04-04T05:34:34.074Z,15.60
2023-04-04T05:37:20.486Z,15.10
2023-04-04T05:39:57.897Z,16.30
2023-04-04T05:42:42.864Z,15.17
2023-04-04T05:45:22.385Z,15.90
2023-04-04T05:48:09.935Z,15.40
2023-04-04T05:51:36.305Z,13.87
2023-04-04T05:54:20.958Z,14.27
2023-04-04T05:57:18.671Z,14.07
2023-04-04T07:35:05.273Z,15.50
2023-04-04T07:38:13.230Z,15.20
2023-04-04T07:40:45.471Z,14.87
2023-04-04T07:43:13.690Z,15.00
2023-04-04T07:45:45.835Z,15.03
2023-04-04T07:48:26.421Z,15.30
2023-04-04T07:50:59.592Z,15.50
2023-04-04T07:53:28.572Z,14.90
2023-04-04T07:55:56.771Z,15.20
2023-04-04T07:58:25.042Z,15.60
2023-04-04T08:00:53.204Z,16.00
2023-04-04T08:03:24.201Z,15.57
2023-04-04T08:05:52.792Z,15.57
2023-04-04T08:08:20.981Z,16.13
2023-04-04T08:10:49.881Z,14.67
2023-04-04T08:13:18.019Z,15.47
2023-04-04T08:15:48.490Z,15.20
2023-04-04T08:18:16.856Z,16.00
2023-04-04T08:20:46.760Z,15.60
2023-04-04T08:23:15.187Z,15.93
2023-04-04T08:25:44.246Z,16.20
2023-04-04T08:28:12.468Z,16.10
2023-04-04T08:30:41.194Z,16.07
2023-04-04T08:33:10.185Z,16.30
2023-04-04T08:35:38.550Z,16.70
2023-04-04T08:38:08.559Z,16.37
2023-04-04T08:40:38.592Z,15.80
2023-04-04T08:43:09.471Z,16.00
2023-04-04T08:45:43.172Z,17.00
2023-04-04T08:48:13.501Z,16.70
2023-04-04T08:50:44.668Z,16.20
2023-04-04T08:53:16.408Z,17.37
2023-04-04T08:55:46.666Z,16.90
2023-04-04T08:58:17.535Z,17.20
2023-04-04T09:00:48.009Z,16.53
2023-04-04T09:03:24.870Z,17.10
2023-04-04T09:05:56.812Z,17.00
2023-04-04T09:08:27.083Z,16.90
2023-04-04T09:10:55.864Z,16.90
2023-04-04T09:13:26.586Z,19.10
2023-04-04T09:15:56.147Z,17.43
2023-04-04T09:18:24.636Z,15.70
2023-04-04T09:20:52.901Z,16.30
2023-04-04T09:23:23.801Z,15.33
2023-04-04T09:28:26.093Z,16.70
2023-04-04T09:30:54.255Z,16.43
2023-04-04T09:33:25.183Z,16.73
2023-04-04T09:35:56.853Z,15.80
2023-04-04T09:38:26.449Z,16.40
2023-04-04T09:40:57.098Z,16.50
2023-04-04T09:43:26.335Z,16.50
2023-04-04T09:45:56.420Z,17.70
2023-04-04T09:48:28.992Z,16.83
2023-04-04T09:50:59.508Z,17.83
2023-04-04T09:53:27.834Z,17.37
2023-04-04T09:56:00.524Z,16.97
2023-04-04T09:58:32.042Z,17.33
2023-04-04T10:01:02.081Z,16.60
2023-04-04T10:03:31.625Z,17.80
2023-04-04T10:06:01.519Z,18.20
2023-04-04T10:08:30.666Z,17.17
2023-04-04T10:11:11.422Z,17.60
2023-04-04T10:13:46.971Z,17.07
2023-04-04T10:16:15.635Z,16.40
2023-04-04T10:18:43.928Z,16.87
2023-04-04T10:21:15.610Z,16.73
2023-04-04T10:23:46.699Z,16.40
2023-04-04T10:26:16.839Z,17.40
2023-04-04T10:28:45.567Z,16.83
2023-04-04T10:31:21.546Z,16.50
2023-04-04T10:33:55.654Z,16.93
2023-04-04T10:36:25.719Z,16.80
2023-04-04T10:39:04.807Z,16.60
2023-04-04T10:41:35.446Z,16.57
2023-04-04T10:44:21.626Z,16.80
2023-04-04T10:46:54.181Z,17.37
2023-04-04T10:49:23.523Z,16.40
2023-04-04T10:51:56.301Z,16.70
2023-04-04T10:54:26.954Z,16.43
2023-04-04T10:57:00.789Z,17.03
2023-04-04T10:59:31.865Z,16.37
2023-04-04T11:02:03.326Z,15.70
2023-04-04T11:04:37.911Z,15.80
2023-04-04T11:07:14.650Z,16.37
2023-04-04T11:09:53.929Z,15.87
2023-04-04T11:12:28.369Z,16.13
2023-04-04T11:14:58.225Z,16.20
2023-04-04T11:17:44.875Z,15.90
2023-04-04T11:20:17.002Z,15.63
2023-04-04T11:22:50.194Z,16.40
2023-04-04T11:25:34.229Z,17.10
2023-04-04T11:28:15.944Z,15.93
2023-04-04T11:30:48.920Z,16.30
2023-04-04T11:33:30.843Z,17.73
2023-04-04T11:36:08.528Z,17.77
2023-04-04T11:38:41.803Z,17.80
2023-04-04T11:41:10.722Z,18.17
2023-04-04T11:43:46.756Z,17.87
2023-04-04T11:46:19.820Z,18.43
2023-04-04T11:48:49.418Z,17.80
2023-04-04T11:51:19.784Z,19.17
2023-04-04T11:53:49.162Z,17.70
2023-04-04T11:56:21.062Z,16.93
2023-04-04T11:59:01.576Z,17.57
2023-04-04T12:01:33.507Z,17.90
2023-04-04T12:04:02.193Z,18.40
2023-04-04T12:06:33.165Z,20.13
2023-04-04T12:09:04.678Z,18.30
2023-04-04T12:11:35.145Z,17.93
2023-04-04T12:14:04.897Z,18.33
2023-04-04T12:16:33.296Z,19.00
2023-04-04T12:19:03.146Z,19.17
2023-04-04T12:21:33.624Z,17.30
2023-04-04T12:24:01.863Z,19.20
2023-04-04T12:26:32.804Z,19.03
2023-04-04T12:29:05.720Z,18.43
2023-04-04T12:31:38.010Z,17.50
2023-04-04T12:34:06.304Z,17.80
2023-04-04T12:36:35.880Z,18.17
2023-04-04T12:39:07.734Z,16.70
2023-04-04T12:41:36.809Z,17.23
2023-04-04T12:44:10.687Z,17.83
2023-04-04T12:46:46.597Z,17.80
2023-04-04T12:49:16.041Z,17.43
2023-04-04T12:51:46.437Z,17.70
2023-04-04T12:54:28.062Z,17.67
2023-04-04T12:56:59.128Z,17.53
2023-04-04T12:59:31.903Z,18.93
2023-04-04T13:02:02.712Z,19.10
2023-04-04T13:04:33.340Z,18.97
2023-04-04T13:07:03.077Z,18.30
2023-04-04T13:09:32.045Z,18.10
2023-04-04T13:12:01.978Z,18.40
2023-04-04T13:14:58.550Z,18.00
2023-04-04T13:17:27.161Z,18.10
2023-04-04T13:20:17.601Z,17.80
2023-04-04T13:22:59.845Z,17.70
2023-04-04T13:26:01.236Z,17.60
2023-04-04T13:29:00.110Z,18.00
2023-04-04T13:31:35.217Z,17.20
2023-04-04T13:34:14.251Z,18.40
2023-04-04T13:36:42.531Z,18.00
2023-04-04T13:39:10.702Z,18.10
2023-04-04T13:41:38.860Z,17.60
2023-04-04T13:44:07.622Z,18.40
2023-04-04T13:46:39.699Z,16.60
2023-04-04T13:49:08.113Z,17.13
2023-04-04T13:51:36.333Z,16.93
2023-04-04T13:54:04.722Z,17.83
2023-04-04T13:56:32.971Z,16.40
2023-04-04T13:59:01.306Z,17.50
2023-04-04T14:01:29.646Z,17.00
2023-04-04T14:04:00.700Z,17.50
2023-04-04T14:06:31.903Z,16.40
2023-04-04T14:09:00.622Z,17.50
2023-04-04T14:11:31.148Z,17.63
2023-04-04T14:13:59.545Z,17.90
2023-04-04T14:16:28.025Z,17.07
2023-04-04T14:18:56.283Z,16.57
2023-04-04T14:21:26.324Z,17.00
2023-04-04T14:23:54.472Z,17.57
2023-04-04T14:26:22.898Z,17.23
2023-04-04T14:28:51.034Z,16.80
2023-04-04T14:31:19.390Z,17.30
2023-04-04T14:33:49.337Z,18.70
2023-04-04T14:36:19.074Z,17.30
2023-04-04T14:38:48.840Z,17.17
2023-04-04T14:41:17.664Z,17.10
2023-04-04T14:43:45.937Z,17.30
2023-04-04T14:46:14.285Z,17.07
2023-04-04T14:48:42.569Z,17.33
2023-04-04T14:51:11.058Z,17.30
2023-04-04T14:53:39.438Z,16.80
2023-04-04T14:56:09.598Z,15.10
2023-04-04T14:58:37.851Z,16.40
2023-04-04T15:01:07.132Z,16.27
2023-04-04T15:03:35.816Z,16.33
2023-04-04T15:06:04.102Z,15.53
2023-04-04T15:08:32.528Z,16.40
2023-04-04T15:11:03.980Z,15.27
2023-04-04T15:13:34.485Z,16.10
2023-04-04T15:16:02.644Z,16.13
2023-04-04T15:18:31.010Z,16.07
2023-04-04T15:20:59.695Z,15.23
2023-04-04T15:23:28.117Z,15.10
2023-04-04T15:25:56.367Z,14.80
2023-04-04T15:28:24.864Z,15.90
2023-04-04T15:30:54.587Z,15.27
2023-04-04T15:33:23.058Z,15.77
2023-04-04T15:35:51.356Z,16.27
2023-04-04T15:38:20.952Z,15.70
2023-04-04T15:40:49.846Z,15.70
2023-04-04T15:43:18.566Z,15.00
2023-04-04T15:45:47.346Z,15.97
2023-04-04T15:48:17.180Z,16.23
2023-04-04T15:50:45.599Z,15.10
2023-04-04T15:53:13.807Z,15.73
2023-04-04T15:55:44.121Z,16.17
2023-04-04T15:58:12.709Z,16.33
2023-04-04T16:00:41.519Z,16.30
2023-04-04T16:03:10.157Z,16.70
2023-04-04T16:05:40.702Z,16.67
2023-04-04T16:08:09.282Z,16.90
2023-04-04T16:10:40.869Z,17.00
2023-04-04T16:13:09.625Z,17.50
2023-04-04T16:16:05.085Z,17.37
2023-04-04T16:18:34.366Z,17.87
2023-04-04T16:21:05.938Z,17.63
2023-04-04T16:23:34.301Z,18.50
2023-04-04T16:26:03.747Z,17.10
2023-04-04T16:28:34.495Z,17.17
2023-04-04T16:31:03.198Z,17.50
2023-04-04T16:33:31.806Z,17.60
2023-04-04T16:36:00.150Z,16.70
2023-04-04T16:38:29.852Z,18.13
2023-04-04T16:41:01.631Z,17.40
2023-04-04T16:43:29.936Z,18.40
2023-04-04T16:46:01.362Z,17.87
2023-04-04T16:48:38.043Z,16.40
2023-04-04T16:51:07.104Z,17.77
2023-04-04T16:53:39.284Z,15.27
2023-04-04T16:56:08.118Z,15.47
2023-04-04T16:59:17.579Z,15.77
2023-04-04T17:01:51.540Z,17.50
2023-04-04T17:04:23.495Z,15.60
2023-04-04T17:06:52.249Z,15.90
2023-04-04T17:09:26.662Z,16.50
2023-04-04T17:11:55.593Z,17.70
2023-04-04T17:14:45.074Z,17.23
2023-04-04T17:17:52.205Z,15.80
2023-04-04T17:23:44.759Z,16.10
2023-04-04T17:26:14.714Z,16.20
2023-04-04T17:28:43.635Z,15.80
2023-04-04T17:31:12.149Z,16.37
2023-04-04T17:33:43.744Z,16.13
2023-04-04T17:36:11.988Z,16.47
2023-04-04T17:38:41.078Z,16.07
2023-04-04T17:41:14.495Z,16.10
2023-04-04T17:43:50.511Z,15.47
2023-04-04T17:46:22.140Z,16.03
2023-04-04T17:48:51.297Z,16.13
2023-04-04T17:51:23.548Z,15.67
2023-04-04T17:53:54.376Z,16.80
2023-04-04T17:56:29.152Z,18.13
2023-04-04T17:59:00.638Z,15.23
2023-04-04T18:01:32.038Z,14.50
2023-04-04T18:04:05.429Z,16.50
2023-04-04T18:06:34.376Z,16.17
2023-04-04T18:09:05.484Z,15.00
2023-04-04T18:11:38.618Z,15.03
2023-04-04T18:14:07.812Z,19.10
2023-04-04T18:16:40.524Z,14.73
2023-04-04T18:19:10.171Z,14.60
2023-04-04T18:21:40.268Z,14.83
2023-04-04T18:24:11.968Z,15.07
2023-04-04T18:26:45.145Z,14.07
2023-04-04T18:29:16.011Z,16.50
2023-04-04T18:31:49.232Z,15.90
2023-04-04T18:34:18.428Z,17.40
2023-04-04T18:36:49.543Z,15.90
2023-04-04T18:39:18.744Z,16.63
2023-04-04T18:41:49.224Z,16.33
2023-04-04T18:44:19.461Z,15.73
2023-04-04T18:46:48.112Z,16.80
2023-04-04T18:49:20.465Z,16.40
2023-04-04T18:51:49.036Z,17.77
2023-04-04T18:54:20.702Z,17.53
2023-04-04T18:57:00.468Z,16.53
2023-04-04T18:59:30.927Z,16.20
2023-04-04T19:02:01.012Z,15.20
2023-04-04T19:04:31.162Z,14.23
2023-04-04T19:07:07.438Z,15.23
2023-04-04T19:09:37.451Z,15.70
2023-04-04T19:12:08.309Z,16.13
2023-04-04T19:14:38.147Z,16.17
2023-04-04T19:17:06.677Z,17.10
2023-04-04T19:19:35.789Z,18.23
2023-04-04T19:22:05.294Z,17.70
2023-04-04T19:24:33.649Z,17.03
2023-04-04T19:27:03.089Z,16.87
2023-04-04T19:29:36.962Z,17.40
2023-04-04T19:32:14.087Z,18.10
2023-04-04T19:34:43.939Z,17.60
2023-04-04T19:37:13.342Z,17.70
2023-04-04T19:39:43.792Z,17.17
2023-04-04T19:42:13.025Z,16.60
2023-04-04T19:44:46.349Z,15.83
2023-04-04T19:47:21.312Z,16.40
2023-04-04T19:49:52.622Z,16.90
2023-04-04T19:52:24.186Z,16.70
2023-04-04T19:54:55.873Z,16.33
2023-04-04T19:57:24.491Z,16.30
2023-04-04T20:00:05.044Z,15.73
2023-04-04T20:03:06.619Z,15.37
2023-04-04T20:05:55.185Z,15.83
2023-04-04T20:08:23.694Z,17.47
2023-04-04T20:10:56.040Z,16.07
2023-04-04T20:13:24.430Z,16.90
2023-04-04T20:16:04.313Z,16.60
2023-04-04T20:18:34.298Z,15.30
2023-04-04T20:21:06.502Z,15.10
2023-04-04T20:23:42.505Z,16.20
2023-04-04T20:26:14.413Z,16.17
2023-04-04T20:28:47.816Z,17.20
2023-04-04T20:31:19.809Z,16.77
2023-04-04T20:33:48.501Z,16.17
2023-04-04T20:36:33.109Z,16.40
2023-04-04T20:39:01.600Z,16.90
2023-04-04T20:41:29.963Z,16.50
2023-04-04T20:43:59.858Z,16.50
2023-04-04T20:46:36.909Z,16.80
2023-04-04T20:49:08.742Z,16.60
2023-04-04T20:51:42.138Z,16.83
2023-04-04T20:54:10.699Z,17.47
2023-04-04T20:56:55.067Z,18.20
2023-04-04T20:59:39.830Z,17.93
2023-04-04T21:02:13.251Z,19.57
2023-04-04T21:04:42.812Z,18.63
2023-04-04T21:07:38.630Z,18.13
2023-04-04T21:10:25.121Z,18.63
2023-04-04T21:12:54.741Z,19.00
2023-04-04T21:15:25.014Z,19.20
2023-04-04T21:17:54.875Z,19.87
2023-04-04T21:21:07.551Z,20.27
2023-04-04T21:23:49.426Z,18.67
2023-04-04T21:26:29.518Z,18.37
2023-04-04T21:28:59.522Z,18.00
2023-04-04T21:31:31.226Z,18.43
2023-04-04T21:34:08.036Z,19.00
2023-04-04T21:36:46.017Z,20.13
2023-04-04T21:39:25.148Z,21.00
2023-04-04T21:41:58.173Z,21.37
2023-04-04T21:44:27.367Z,20.63
2023-04-04T21:47:01.933Z,21.60
2023-04-04T21:49:33.165Z,21.23
2023-04-04T21:52:02.548Z,21.33
2023-04-04T21:54:31.078Z,20.47
2023-04-04T21:56:59.495Z,21.70
2023-04-04T21:59:27.928Z,18.97
2023-04-04T22:01:58.147Z,19.33
2023-04-04T22:04:27.048Z,19.60
2023-04-04T22:07:04.178Z,19.23
2023-04-04T22:09:32.709Z,19.30
2023-04-04T22:12:02.887Z,20.23
2023-04-04T22:14:31.987Z,19.90
2023-04-04T22:17:03.329Z,19.23
2023-04-04T22:19:42.913Z,19.53
2023-04-04T22:22:12.738Z,18.70
2023-04-04T22:24:41.123Z,18.90
2023-04-04T22:27:09.499Z,18.43
2023-04-04T22:29:37.853Z,18.93
2023-04-04T22:32:15.369Z,18.80
2023-04-04T22:34:43.727Z,23.77
2023-04-04T22:37:13.409Z,19.90
2023-04-04T22:39:42.880Z,18.67
2023-04-04T22:42:11.372Z,17.57
2023-04-04T22:44:39.794Z,18.13
2023-04-04T22:47:08.104Z,18.03
2023-04-04T22:49:38.104Z,17.87
2023-04-04T22:52:07.352Z,18.43
2023-04-04T22:54:37.292Z,17.90
2023-04-04T22:57:05.683Z,18.03
2023-04-04T22:59:34.177Z,17.87
2023-04-04T23:02:02.932Z,17.60
2023-04-04T23:04:31.290Z,17.87
2023-04-04T23:06:59.974Z,17.50
2023-04-04T23:09:28.316Z,17.80
2023-04-04T23:11:58.217Z,17.87
2023-04-04T23:14:30.683Z,18.20
2023-04-04T23:16:59.090Z,18.10
2023-04-04T23:19:27.809Z,18.60
2023-04-04T23:21:56.183Z,18.40
2023-04-04T23:24:24.607Z,17.47
2023-04-04T23:26:52.895Z,16.60
2023-04-04T23:29:22.723Z,15.33
2023-04-04T23:31:51.017Z,15.70
2023-04-04T23:34:19.153Z,16.40
2023-04-04T23:36:47.451Z,15.63
2023-04-04T23:39:16.488Z,15.00
2023-04-04T23:41:44.790Z,14.87
2023-04-04T23:44:13.411Z,15.07
2023-04-04T23:46:43.030Z,14.00
2023-04-04T23:49:12.843Z,14.20
2023-04-04T23:51:42.444Z,14.50
2023-04-04T23:54:12.651Z,15.10
2023-04-04T23:56:41.849Z,14.60
2023-04-04T23:59:10.516Z,14.90
